SCAA weather

Añorada Airport
Frutillar, Los Lagos Region, Chile

Public forecast

Using degrees Celsius for public forecast. Weather courtesy of forecast.io.

Closest aviation weather report (METAR) to Añorada Airport

Closest report is El Tepual Airport, 23.9 nm (44.2 km) S. Retrieved 2020/04/04 17:00 UTC (44 minutes ago):

SCTE 041700Z 20003KT 100V260 9999 FEW020 BKN050 13/07 Q1017 NOSIG

Closest aviation forecast (TAF) to Añorada Airport

Closest forecast is El Tepual Airport, 23.9 nm (44.2 km) S. Retrieved 2020/04/04 12:00 UTC (6 hours ago):

TAF SCTE 041017Z 0412/0512 24005KT 9999 SCT040 TX15/0421Z TN04/0510Z BECMG 0412/0414 17007KT BKN035 BECMG 0500/0502 02005KT OVC025 BECMG 0506/0508 33007KT 8000 -RA SCT010 OVC025